sensor_id;sensor_type;location;lat;lon;timestamp;P1;durP1;ratioP1;P2;durP2;ratioP2
68888;SDS011;55930;47.412;8.790;2022-12-31T00:03:04;2.13;;;1.03;;
68888;SDS011;55930;47.412;8.790;2022-12-31T00:06:30;1.45;;;1.05;;
68888;SDS011;55930;47.412;8.790;2022-12-31T00:09:52;6.22;;;1.25;;
68888;SDS011;55930;47.412;8.790;2022-12-31T00:13:15;1.35;;;0.90;;
68888;SDS011;55930;47.412;8.790;2022-12-31T00:16:37;1.35;;;0.90;;
68888;SDS011;55930;47.412;8.790;2022-12-31T00:19:59;3.10;;;1.02;;
68888;SDS011;55930;47.412;8.790;2022-12-31T00:23:19;0.90;;;0.77;;
68888;SDS011;55930;47.412;8.790;2022-12-31T00:26:40;1.53;;;0.93;;
68888;SDS011;55930;47.412;8.790;2022-12-31T00:30:00;2.40;;;1.00;;
68888;SDS011;55930;47.412;8.790;2022-12-31T00:33:21;1.53;;;0.90;;
68888;SDS011;55930;47.412;8.790;2022-12-31T00:36:49;2.08;;;1.15;;
68888;SDS011;55930;47.412;8.790;2022-12-31T00:40:11;1.58;;;0.88;;
68888;SDS011;55930;47.412;8.790;2022-12-31T00:43:33;1.55;;;1.10;;
68888;SDS011;55930;47.412;8.790;2022-12-31T00:46:54;4.07;;;1.13;;
68888;SDS011;55930;47.412;8.790;2022-12-31T00:50:14;1.80;;;0.93;;
68888;SDS011;55930;47.412;8.790;2022-12-31T00:53:34;2.63;;;1.10;;
68888;SDS011;55930;47.412;8.790;2022-12-31T00:57:03;0.90;;;0.80;;
68888;SDS011;55930;47.412;8.790;2022-12-31T01:00:29;1.48;;;0.80;;
68888;SDS011;55930;47.412;8.790;2022-12-31T01:03:51;1.90;;;1.13;;
68888;SDS011;55930;47.412;8.790;2022-12-31T01:07:13;1.30;;;0.77;;
68888;SDS011;55930;47.412;8.790;2022-12-31T01:10:36;1.27;;;0.90;;
68888;SDS011;55930;47.412;8.790;2022-12-31T01:17:39;0.88;;;0.82;;
68888;SDS011;55930;47.412;8.790;2022-12-31T01:21:00;1.07;;;0.97;;
68888;SDS011;55930;47.412;8.790;2022-12-31T01:24:22;2.25;;;1.30;;
68888;SDS011;55930;47.412;8.790;2022-12-31T01:27:43;1.08;;;0.90;;
68888;SDS011;55930;47.412;8.790;2022-12-31T01:31:07;2.40;;;1.00;;
68888;SDS011;55930;47.412;8.790;2022-12-31T01:34:32;1.92;;;1.10;;
68888;SDS011;55930;47.412;8.790;2022-12-31T01:37:52;1.50;;;0.90;;
68888;SDS011;55930;47.412;8.790;2022-12-31T01:41:13;1.20;;;1.00;;
68888;SDS011;55930;47.412;8.790;2022-12-31T01:48:02;1.20;;;1.00;;
68888;SDS011;55930;47.412;8.790;2022-12-31T01:51:24;2.33;;;1.00;;
68888;SDS011;55930;47.412;8.790;2022-12-31T01:54:51;1.70;;;1.02;;
68888;SDS011;55930;47.412;8.790;2022-12-31T01:58:15;2.38;;;0.82;;
68888;SDS011;55930;47.412;8.790;2022-12-31T02:01:42;1.50;;;0.80;;
68888;SDS011;55930;47.412;8.790;2022-12-31T02:05:04;1.48;;;1.00;;
68888;SDS011;55930;47.412;8.790;2022-12-31T02:08:49;1.75;;;1.05;;
68888;SDS011;55930;47.412;8.790;2022-12-31T02:12:10;1.60;;;0.80;;
68888;SDS011;55930;47.412;8.790;2022-12-31T02:30:25;1.30;;;0.90;;
68888;SDS011;55930;47.412;8.790;2022-12-31T02:34:05;1.65;;;0.88;;
68888;SDS011;55930;47.412;8.790;2022-12-31T02:37:30;1.70;;;1.10;;
68888;SDS011;55930;47.412;8.790;2022-12-31T02:40:53;3.20;;;0.88;;
68888;SDS011;55930;47.412;8.790;2022-12-31T02:44:30;1.25;;;0.90;;
68888;SDS011;55930;47.412;8.790;2022-12-31T02:55:10;1.65;;;1.08;;
68888;SDS011;55930;47.412;8.790;2022-12-31T02:58:41;1.08;;;0.70;;
68888;SDS011;55930;47.412;8.790;2022-12-31T03:02:29;0.77;;;0.77;;
68888;SDS011;55930;47.412;8.790;2022-12-31T03:05:53;1.58;;;1.08;;
68888;SDS011;55930;47.412;8.790;2022-12-31T03:09:15;2.13;;;0.90;;
68888;SDS011;55930;47.412;8.790;2022-12-31T03:12:36;1.43;;;0.80;;
68888;SDS011;55930;47.412;8.790;2022-12-31T03:16:08;1.60;;;0.90;;
68888;SDS011;55930;47.412;8.790;2022-12-31T03:19:29;0.97;;;0.87;;
68888;SDS011;55930;47.412;8.790;2022-12-31T03:23:09;1.40;;;1.10;;
68888;SDS011;55930;47.412;8.790;2022-12-31T03:26:35;1.65;;;1.00;;
68888;SDS011;55930;47.412;8.790;2022-12-31T03:29:55;1.47;;;1.00;;
68888;SDS011;55930;47.412;8.790;2022-12-31T03:33:16;1.97;;;0.77;;
68888;SDS011;55930;47.412;8.790;2022-12-31T03:36:37;1.73;;;0.90;;
68888;SDS011;55930;47.412;8.790;2022-12-31T03:39:58;1.13;;;1.00;;
68888;SDS011;55930;47.412;8.790;2022-12-31T03:43:37;0.95;;;0.85;;
68888;SDS011;55930;47.412;8.790;2022-12-31T03:46:58;1.37;;;0.97;;
68888;SDS011;55930;47.412;8.790;2022-12-31T03:50:18;3.60;;;1.10;;
68888;SDS011;55930;47.412;8.790;2022-12-31T03:53:39;1.40;;;0.90;;
68888;SDS011;55930;47.412;8.790;2022-12-31T03:56:59;2.40;;;0.90;;
68888;SDS011;55930;47.412;8.790;2022-12-31T04:00:20;1.30;;;1.10;;
68888;SDS011;55930;47.412;8.790;2022-12-31T04:03:41;1.35;;;0.90;;
68888;SDS011;55930;47.412;8.790;2022-12-31T04:07:01;3.03;;;0.93;;
68888;SDS011;55930;47.412;8.790;2022-12-31T04:10:22;2.53;;;1.13;;
68888;SDS011;55930;47.412;8.790;2022-12-31T04:13:42;3.57;;;1.07;;
68888;SDS011;55930;47.412;8.790;2022-12-31T04:17:03;2.47;;;0.87;;
68888;SDS011;55930;47.412;8.790;2022-12-31T04:20:23;1.80;;;1.00;;
68888;SDS011;55930;47.412;8.790;2022-12-31T04:23:44;1.30;;;0.90;;
68888;SDS011;55930;47.412;8.790;2022-12-31T04:27:04;1.97;;;1.00;;
68888;SDS011;55930;47.412;8.790;2022-12-31T04:30:24;1.03;;;0.93;;
68888;SDS011;55930;47.412;8.790;2022-12-31T04:33:45;3.50;;;0.90;;
68888;SDS011;55930;47.412;8.790;2022-12-31T04:37:05;4.13;;;1.10;;
68888;SDS011;55930;47.412;8.790;2022-12-31T04:40:28;2.00;;;0.98;;
68888;SDS011;55930;47.412;8.790;2022-12-31T04:43:52;5.47;;;1.00;;
68888;SDS011;55930;47.412;8.790;2022-12-31T04:47:14;1.00;;;0.82;;
68888;SDS011;55930;47.412;8.790;2022-12-31T04:50:34;2.57;;;0.93;;
68888;SDS011;55930;47.412;8.790;2022-12-31T04:53:57;1.38;;;1.00;;
68888;SDS011;55930;47.412;8.790;2022-12-31T04:57:17;3.17;;;1.43;;
68888;SDS011;55930;47.412;8.790;2022-12-31T05:00:38;1.70;;;0.80;;
68888;SDS011;55930;47.412;8.790;2022-12-31T05:04:01;3.00;;;0.83;;
68888;SDS011;55930;47.412;8.790;2022-12-31T05:07:21;3.03;;;0.73;;
68888;SDS011;55930;47.412;8.790;2022-12-31T05:10:42;0.67;;;0.67;;
68888;SDS011;55930;47.412;8.790;2022-12-31T05:14:04;1.38;;;1.00;;
68888;SDS011;55930;47.412;8.790;2022-12-31T05:17:25;0.70;;;0.70;;
68888;SDS011;55930;47.412;8.790;2022-12-31T05:20:45;1.13;;;0.73;;
68888;SDS011;55930;47.412;8.790;2022-12-31T05:24:12;0.68;;;0.68;;
68888;SDS011;55930;47.412;8.790;2022-12-31T05:27:32;4.85;;;0.90;;
68888;SDS011;55930;47.412;8.790;2022-12-31T05:30:53;2.47;;;0.80;;
68888;SDS011;55930;47.412;8.790;2022-12-31T05:34:14;2.47;;;0.80;;
68888;SDS011;55930;47.412;8.790;2022-12-31T05:37:34;0.83;;;0.70;;
68888;SDS011;55930;47.412;8.790;2022-12-31T05:40:57;1.52;;;1.00;;
68888;SDS011;55930;47.412;8.790;2022-12-31T05:44:19;2.67;;;0.80;;
68888;SDS011;55930;47.412;8.790;2022-12-31T05:47:39;2.43;;;0.60;;
68888;SDS011;55930;47.412;8.790;2022-12-31T05:51:00;0.57;;;0.57;;
68888;SDS011;55930;47.412;8.790;2022-12-31T05:54:36;1.55;;;0.60;;
68888;SDS011;55930;47.412;8.790;2022-12-31T05:57:56;0.70;;;0.60;;
68888;SDS011;55930;47.412;8.790;2022-12-31T06:01:17;2.03;;;0.50;;
68888;SDS011;55930;47.412;8.790;2022-12-31T06:04:37;1.90;;;0.60;;
68888;SDS011;55930;47.412;8.790;2022-12-31T06:07:57;0.57;;;0.57;;
68888;SDS011;55930;47.412;8.790;2022-12-31T06:11:21;2.83;;;0.73;;
68888;SDS011;55930;47.412;8.790;2022-12-31T06:14:42;1.05;;;0.70;;
68888;SDS011;55930;47.412;8.790;2022-12-31T06:18:03;2.83;;;0.65;;
68888;SDS011;55930;47.412;8.790;2022-12-31T06:21:23;2.60;;;0.70;;
68888;SDS011;55930;47.412;8.790;2022-12-31T06:24:46;0.70;;;0.60;;
68888;SDS011;55930;47.412;8.790;2022-12-31T06:28:07;0.70;;;0.50;;
68888;SDS011;55930;47.412;8.790;2022-12-31T06:34:48;0.93;;;0.47;;
68888;SDS011;55930;47.412;8.790;2022-12-31T06:38:09;1.17;;;0.90;;
68888;SDS011;55930;47.412;8.790;2022-12-31T06:41:30;0.97;;;0.50;;
68888;SDS011;55930;47.412;8.790;2022-12-31T06:44:50;0.50;;;0.50;;
68888;SDS011;55930;47.412;8.790;2022-12-31T06:48:11;3.93;;;0.60;;
68888;SDS011;55930;47.412;8.790;2022-12-31T06:51:34;0.80;;;0.70;;
68888;SDS011;55930;47.412;8.790;2022-12-31T06:54:54;1.80;;;0.63;;
68888;SDS011;55930;47.412;8.790;2022-12-31T06:58:15;0.98;;;0.65;;
68888;SDS011;55930;47.412;8.790;2022-12-31T07:02:12;2.67;;;0.57;;
68888;SDS011;55930;47.412;8.790;2022-12-31T07:12:35;0.95;;;0.50;;
68888;SDS011;55930;47.412;8.790;2022-12-31T07:23:10;0.57;;;0.57;;
68888;SDS011;55930;47.412;8.790;2022-12-31T07:30:14;1.63;;;0.70;;
68888;SDS011;55930;47.412;8.790;2022-12-31T07:33:48;1.65;;;0.63;;
68888;SDS011;55930;47.412;8.790;2022-12-31T07:37:26;0.98;;;0.80;;
68888;SDS011;55930;47.412;8.790;2022-12-31T07:48:00;1.85;;;1.10;;
68888;SDS011;55930;47.412;8.790;2022-12-31T07:51:21;1.53;;;1.00;;
68888;SDS011;55930;47.412;8.790;2022-12-31T07:54:42;0.98;;;0.80;;
68888;SDS011;55930;47.412;8.790;2022-12-31T07:58:10;1.67;;;0.80;;
68888;SDS011;55930;47.412;8.790;2022-12-31T08:09:18;4.45;;;0.80;;
68888;SDS011;55930;47.412;8.790;2022-12-31T08:12:42;0.82;;;0.63;;
68888;SDS011;55930;47.412;8.790;2022-12-31T08:16:07;2.92;;;0.60;;
68888;SDS011;55930;47.412;8.790;2022-12-31T08:19:30;0.77;;;0.55;;
68888;SDS011;55930;47.412;8.790;2022-12-31T08:26:31;1.58;;;0.80;;
68888;SDS011;55930;47.412;8.790;2022-12-31T08:30:07;4.00;;;1.50;;
68888;SDS011;55930;47.412;8.790;2022-12-31T08:33:34;3.38;;;1.45;;
68888;SDS011;55930;47.412;8.790;2022-12-31T08:40:42;2.60;;;1.02;;
68888;SDS011;55930;47.412;8.790;2022-12-31T08:47:59;1.17;;;0.88;;
68888;SDS011;55930;47.412;8.790;2022-12-31T08:51:21;2.30;;;0.73;;
68888;SDS011;55930;47.412;8.790;2022-12-31T08:54:43;2.33;;;0.60;;
68888;SDS011;55930;47.412;8.790;2022-12-31T08:58:14;1.80;;;0.63;;
68888;SDS011;55930;47.412;8.790;2022-12-31T09:17:17;0.70;;;0.70;;
68888;SDS011;55930;47.412;8.790;2022-12-31T09:20:33;1.35;;;0.70;;
68888;SDS011;55930;47.412;8.790;2022-12-31T09:23:54;0.98;;;0.70;;
68888;SDS011;55930;47.412;8.790;2022-12-31T09:27:21;0.88;;;0.63;;
68888;SDS011;55930;47.412;8.790;2022-12-31T09:30:53;2.13;;;0.80;;
68888;SDS011;55930;47.412;8.790;2022-12-31T09:34:31;0.90;;;0.63;;
68888;SDS011;55930;47.412;8.790;2022-12-31T09:38:26;0.93;;;0.60;;
68888;SDS011;55930;47.412;8.790;2022-12-31T09:56:36;1.20;;;0.60;;
68888;SDS011;55930;47.412;8.790;2022-12-31T10:00:10;2.22;;;0.70;;
68888;SDS011;55930;47.412;8.790;2022-12-31T10:11:04;1.83;;;0.98;;
68888;SDS011;55930;47.412;8.790;2022-12-31T10:37:17;1.45;;;0.50;;
68888;SDS011;55930;47.412;8.790;2022-12-31T10:41:03;0.75;;;0.60;;
68888;SDS011;55930;47.412;8.790;2022-12-31T10:52:27;0.57;;;0.57;;
68888;SDS011;55930;47.412;8.790;2022-12-31T10:56:43;2.95;;;0.85;;
68888;SDS011;55930;47.412;8.790;2022-12-31T11:00:47;1.67;;;0.70;;
68888;SDS011;55930;47.412;8.790;2022-12-31T11:29:41;0.95;;;0.57;;
68888;SDS011;55930;47.412;8.790;2022-12-31T11:58:52;0.95;;;0.50;;
68888;SDS011;55930;47.412;8.790;2022-12-31T12:05:47;1.52;;;0.60;;
68888;SDS011;55930;47.412;8.790;2022-12-31T12:09:21;0.70;;;0.60;;
68888;SDS011;55930;47.412;8.790;2022-12-31T12:12:48;1.87;;;0.87;;
68888;SDS011;55930;47.412;8.790;2022-12-31T12:16:09;1.33;;;0.80;;
68888;SDS011;55930;47.412;8.790;2022-12-31T12:19:30;2.70;;;1.25;;
68888;SDS011;55930;47.412;8.790;2022-12-31T12:22:53;2.60;;;0.52;;
68888;SDS011;55930;47.412;8.790;2022-12-31T12:30:20;1.98;;;0.70;;
68888;SDS011;55930;47.412;8.790;2022-12-31T12:33:45;1.90;;;0.50;;
68888;SDS011;55930;47.412;8.790;2022-12-31T12:37:20;0.85;;;0.40;;
68888;SDS011;55930;47.412;8.790;2022-12-31T12:40:52;0.68;;;0.40;;
68888;SDS011;55930;47.412;8.790;2022-12-31T12:44:14;0.90;;;0.55;;
68888;SDS011;55930;47.412;8.790;2022-12-31T12:47:35;0.50;;;0.50;;
68888;SDS011;55930;47.412;8.790;2022-12-31T12:50:56;0.98;;;0.52;;
68888;SDS011;55930;47.412;8.790;2022-12-31T13:01:56;1.05;;;0.65;;
68888;SDS011;55930;47.412;8.790;2022-12-31T13:23:51;1.08;;;0.60;;
68888;SDS011;55930;47.412;8.790;2022-12-31T13:27:35;2.80;;;1.02;;
68888;SDS011;55930;47.412;8.790;2022-12-31T13:31:00;1.45;;;0.60;;
68888;SDS011;55930;47.412;8.790;2022-12-31T13:34:29;1.38;;;0.60;;
68888;SDS011;55930;47.412;8.790;2022-12-31T13:37:59;0.60;;;0.50;;
68888;SDS011;55930;47.412;8.790;2022-12-31T13:44:53;1.50;;;0.70;;
68888;SDS011;55930;47.412;8.790;2022-12-31T13:48:20;4.40;;;0.50;;
68888;SDS011;55930;47.412;8.790;2022-12-31T13:51:48;0.85;;;0.40;;
68888;SDS011;55930;47.412;8.790;2022-12-31T13:55:16;1.05;;;0.50;;
68888;SDS011;55930;47.412;8.790;2022-12-31T13:58:47;0.65;;;0.40;;
68888;SDS011;55930;47.412;8.790;2022-12-31T14:02:32;3.95;;;0.60;;
68888;SDS011;55930;47.412;8.790;2022-12-31T14:06:01;2.08;;;0.50;;
68888;SDS011;55930;47.412;8.790;2022-12-31T14:09:43;1.88;;;0.60;;
68888;SDS011;55930;47.412;8.790;2022-12-31T14:13:10;3.35;;;0.80;;
68888;SDS011;55930;47.412;8.790;2022-12-31T14:16:41;2.42;;;0.60;;
68888;SDS011;55930;47.412;8.790;2022-12-31T14:27:52;3.83;;;0.60;;
68888;SDS011;55930;47.412;8.790;2022-12-31T14:34:51;1.50;;;0.68;;
68888;SDS011;55930;47.412;8.790;2022-12-31T14:48:38;2.00;;;0.50;;
68888;SDS011;55930;47.412;8.790;2022-12-31T14:52:24;2.25;;;0.70;;
68888;SDS011;55930;47.412;8.790;2022-12-31T15:00:00;1.38;;;0.70;;
68888;SDS011;55930;47.412;8.790;2022-12-31T15:03:40;1.50;;;0.70;;
68888;SDS011;55930;47.412;8.790;2022-12-31T15:07:06;1.05;;;0.63;;
68888;SDS011;55930;47.412;8.790;2022-12-31T15:10:46;2.75;;;0.70;;
68888;SDS011;55930;47.412;8.790;2022-12-31T15:17:48;7.53;;;1.10;;
68888;SDS011;55930;47.412;8.790;2022-12-31T15:25:17;0.70;;;0.52;;
68888;SDS011;55930;47.412;8.790;2022-12-31T15:28:38;2.45;;;0.82;;
68888;SDS011;55930;47.412;8.790;2022-12-31T15:32:00;2.10;;;0.80;;
68888;SDS011;55930;47.412;8.790;2022-12-31T15:38:51;4.07;;;0.77;;
68888;SDS011;55930;47.412;8.790;2022-12-31T15:42:32;1.27;;;0.63;;
68888;SDS011;55930;47.412;8.790;2022-12-31T15:46:01;3.85;;;0.60;;
68888;SDS011;55930;47.412;8.790;2022-12-31T15:49:34;3.50;;;1.50;;
68888;SDS011;55930;47.412;8.790;2022-12-31T15:53:00;2.50;;;1.38;;
68888;SDS011;55930;47.412;8.790;2022-12-31T15:56:36;2.13;;;0.73;;
68888;SDS011;55930;47.412;8.790;2022-12-31T16:00:05;2.13;;;0.70;;
68888;SDS011;55930;47.412;8.790;2022-12-31T16:03:47;1.83;;;0.60;;
68888;SDS011;55930;47.412;8.790;2022-12-31T16:07:13;4.05;;;0.70;;
68888;SDS011;55930;47.412;8.790;2022-12-31T16:10:34;3.20;;;0.70;;
68888;SDS011;55930;47.412;8.790;2022-12-31T16:13:55;1.13;;;0.52;;
68888;SDS011;55930;47.412;8.790;2022-12-31T16:17:25;1.20;;;0.60;;
68888;SDS011;55930;47.412;8.790;2022-12-31T16:27:48;1.02;;;0.60;;
68888;SDS011;55930;47.412;8.790;2022-12-31T16:31:13;2.40;;;0.80;;
68888;SDS011;55930;47.412;8.790;2022-12-31T16:34:36;1.42;;;0.73;;
68888;SDS011;55930;47.412;8.790;2022-12-31T16:38:01;2.95;;;0.90;;
68888;SDS011;55930;47.412;8.790;2022-12-31T16:41:42;1.90;;;0.88;;
68888;SDS011;55930;47.412;8.790;2022-12-31T16:45:15;4.25;;;0.90;;
68888;SDS011;55930;47.412;8.790;2022-12-31T16:49:34;1.40;;;0.98;;
68888;SDS011;55930;47.412;8.790;2022-12-31T16:52:40;3.08;;;0.73;;
68888;SDS011;55930;47.412;8.790;2022-12-31T16:56:03;2.00;;;1.10;;
68888;SDS011;55930;47.412;8.790;2022-12-31T16:59:30;1.27;;;0.90;;
68888;SDS011;55930;47.412;8.790;2022-12-31T17:02:58;0.90;;;0.60;;
68888;SDS011;55930;47.412;8.790;2022-12-31T17:06:30;1.08;;;0.60;;
68888;SDS011;55930;47.412;8.790;2022-12-31T17:13:29;2.17;;;0.82;;
68888;SDS011;55930;47.412;8.790;2022-12-31T17:16:59;1.08;;;0.90;;
68888;SDS011;55930;47.412;8.790;2022-12-31T17:20:24;2.85;;;1.63;;
68888;SDS011;55930;47.412;8.790;2022-12-31T17:23:51;3.10;;;1.58;;
68888;SDS011;55930;47.412;8.790;2022-12-31T17:27:14;3.08;;;1.63;;
68888;SDS011;55930;47.412;8.790;2022-12-31T17:30:38;4.70;;;1.52;;
68888;SDS011;55930;47.412;8.790;2022-12-31T17:37:34;4.10;;;2.33;;
68888;SDS011;55930;47.412;8.790;2022-12-31T17:44:27;13.45;;;9.23;;
68888;SDS011;55930;47.412;8.790;2022-12-31T17:47:48;27.13;;;22.35;;
68888;SDS011;55930;47.412;8.790;2022-12-31T17:51:11;7.60;;;5.93;;
68888;SDS011;55930;47.412;8.790;2022-12-31T17:54:31;30.53;;;27.07;;
68888;SDS011;55930;47.412;8.790;2022-12-31T17:57:53;14.37;;;11.67;;
68888;SDS011;55930;47.412;8.790;2022-12-31T18:01:17;5.57;;;4.22;;
68888;SDS011;55930;47.412;8.790;2022-12-31T18:04:39;5.00;;;1.67;;
68888;SDS011;55930;47.412;8.790;2022-12-31T18:07:59;7.13;;;4.63;;
68888;SDS011;55930;47.412;8.790;2022-12-31T18:11:20;3.87;;;1.93;;
68888;SDS011;55930;47.412;8.790;2022-12-31T18:14:43;2.65;;;2.25;;
68888;SDS011;55930;47.412;8.790;2022-12-31T18:18:11;10.20;;;6.25;;
68888;SDS011;55930;47.412;8.790;2022-12-31T18:21:40;5.82;;;3.20;;
68888;SDS011;55930;47.412;8.790;2022-12-31T18:25:02;7.65;;;3.85;;
68888;SDS011;55930;47.412;8.790;2022-12-31T18:28:23;5.28;;;2.33;;
68888;SDS011;55930;47.412;8.790;2022-12-31T18:31:44;6.87;;;4.77;;
68888;SDS011;55930;47.412;8.790;2022-12-31T18:35:10;5.95;;;4.00;;
68888;SDS011;55930;47.412;8.790;2022-12-31T18:38:33;10.70;;;5.88;;
68888;SDS011;55930;47.412;8.790;2022-12-31T18:41:54;13.87;;;8.70;;
68888;SDS011;55930;47.412;8.790;2022-12-31T18:45:15;18.53;;;11.07;;
68888;SDS011;55930;47.412;8.790;2022-12-31T18:48:40;9.73;;;6.30;;
68888;SDS011;55930;47.412;8.790;2022-12-31T18:52:01;9.85;;;5.93;;
68888;SDS011;55930;47.412;8.790;2022-12-31T18:58:55;4.85;;;3.30;;
68888;SDS011;55930;47.412;8.790;2022-12-31T19:02:18;8.53;;;5.77;;
68888;SDS011;55930;47.412;8.790;2022-12-31T19:05:39;6.70;;;3.60;;
68888;SDS011;55930;47.412;8.790;2022-12-31T19:09:00;6.77;;;4.27;;
68888;SDS011;55930;47.412;8.790;2022-12-31T19:12:20;2.93;;;1.50;;
68888;SDS011;55930;47.412;8.790;2022-12-31T19:15:47;6.88;;;4.80;;
68888;SDS011;55930;47.412;8.790;2022-12-31T19:19:10;14.63;;;9.57;;
68888;SDS011;55930;47.412;8.790;2022-12-31T19:22:31;13.23;;;8.15;;
68888;SDS011;55930;47.412;8.790;2022-12-31T19:25:51;11.07;;;6.40;;
68888;SDS011;55930;47.412;8.790;2022-12-31T19:29:21;4.80;;;2.80;;
68888;SDS011;55930;47.412;8.790;2022-12-31T19:32:48;6.95;;;4.63;;
68888;SDS011;55930;47.412;8.790;2022-12-31T19:36:14;11.20;;;6.35;;
68888;SDS011;55930;47.412;8.790;2022-12-31T19:39:39;13.23;;;7.82;;
68888;SDS011;55930;47.412;8.790;2022-12-31T19:42:59;4.93;;;3.40;;
68888;SDS011;55930;47.412;8.790;2022-12-31T19:46:20;4.10;;;2.10;;
68888;SDS011;55930;47.412;8.790;2022-12-31T19:49:40;8.15;;;3.45;;
68888;SDS011;55930;47.412;8.790;2022-12-31T19:53:01;12.57;;;6.07;;
68888;SDS011;55930;47.412;8.790;2022-12-31T19:56:21;10.37;;;7.20;;
68888;SDS011;55930;47.412;8.790;2022-12-31T19:59:42;13.93;;;8.63;;
68888;SDS011;55930;47.412;8.790;2022-12-31T20:03:02;7.17;;;3.77;;
68888;SDS011;55930;47.412;8.790;2022-12-31T20:06:22;6.97;;;4.50;;
68888;SDS011;55930;47.412;8.790;2022-12-31T20:09:43;4.93;;;2.50;;
68888;SDS011;55930;47.412;8.790;2022-12-31T20:13:03;4.97;;;2.83;;
68888;SDS011;55930;47.412;8.790;2022-12-31T20:16:24;4.63;;;3.20;;
68888;SDS011;55930;47.412;8.790;2022-12-31T20:23:05;14.23;;;8.10;;
68888;SDS011;55930;47.412;8.790;2022-12-31T20:26:26;8.53;;;4.40;;
68888;SDS011;55930;47.412;8.790;2022-12-31T20:29:46;19.40;;;10.73;;
68888;SDS011;55930;47.412;8.790;2022-12-31T20:33:07;17.77;;;11.90;;
68888;SDS011;55930;47.412;8.790;2022-12-31T20:36:27;21.23;;;12.10;;
68888;SDS011;55930;47.412;8.790;2022-12-31T20:39:50;69.30;;;43.63;;
68888;SDS011;55930;47.412;8.790;2022-12-31T20:43:10;36.70;;;22.80;;
68888;SDS011;55930;47.412;8.790;2022-12-31T20:46:31;36.33;;;26.53;;
68888;SDS011;55930;47.412;8.790;2022-12-31T20:49:51;26.73;;;18.60;;
68888;SDS011;55930;47.412;8.790;2022-12-31T20:53:12;7.50;;;5.00;;
68888;SDS011;55930;47.412;8.790;2022-12-31T20:56:33;7.03;;;4.47;;
68888;SDS011;55930;47.412;8.790;2022-12-31T20:59:56;6.88;;;4.10;;
68888;SDS011;55930;47.412;8.790;2022-12-31T21:03:16;7.10;;;3.63;;
68888;SDS011;55930;47.412;8.790;2022-12-31T21:06:37;3.83;;;2.58;;
68888;SDS011;55930;47.412;8.790;2022-12-31T21:09:58;4.27;;;3.00;;
68888;SDS011;55930;47.412;8.790;2022-12-31T21:13:18;5.87;;;3.43;;
68888;SDS011;55930;47.412;8.790;2022-12-31T21:16:41;5.68;;;2.60;;
68888;SDS011;55930;47.412;8.790;2022-12-31T21:20:03;6.83;;;2.47;;
68888;SDS011;55930;47.412;8.790;2022-12-31T21:23:24;3.45;;;2.10;;
68888;SDS011;55930;47.412;8.790;2022-12-31T21:26:44;3.37;;;1.93;;
68888;SDS011;55930;47.412;8.790;2022-12-31T21:30:05;4.53;;;2.00;;
68888;SDS011;55930;47.412;8.790;2022-12-31T21:33:26;5.05;;;3.50;;
68888;SDS011;55930;47.412;8.790;2022-12-31T21:36:49;4.72;;;2.83;;
68888;SDS011;55930;47.412;8.790;2022-12-31T21:40:09;8.13;;;3.37;;
68888;SDS011;55930;47.412;8.790;2022-12-31T21:43:30;4.53;;;3.00;;
68888;SDS011;55930;47.412;8.790;2022-12-31T21:46:58;8.33;;;4.07;;
68888;SDS011;55930;47.412;8.790;2022-12-31T21:50:40;4.32;;;2.22;;
68888;SDS011;55930;47.412;8.790;2022-12-31T21:54:00;4.93;;;1.60;;
68888;SDS011;55930;47.412;8.790;2022-12-31T21:57:21;3.77;;;1.70;;
68888;SDS011;55930;47.412;8.790;2022-12-31T22:00:41;4.13;;;1.80;;
68888;SDS011;55930;47.412;8.790;2022-12-31T22:04:20;2.67;;;1.77;;
68888;SDS011;55930;47.412;8.790;2022-12-31T22:07:41;3.83;;;2.33;;
68888;SDS011;55930;47.412;8.790;2022-12-31T22:11:01;5.43;;;3.43;;
68888;SDS011;55930;47.412;8.790;2022-12-31T22:14:22;9.87;;;5.30;;
68888;SDS011;55930;47.412;8.790;2022-12-31T22:17:42;7.57;;;2.73;;
68888;SDS011;55930;47.412;8.790;2022-12-31T22:24:27;8.98;;;4.85;;
68888;SDS011;55930;47.412;8.790;2022-12-31T22:27:47;6.10;;;3.33;;
68888;SDS011;55930;47.412;8.790;2022-12-31T22:31:08;11.23;;;7.30;;
68888;SDS011;55930;47.412;8.790;2022-12-31T22:34:32;7.63;;;5.88;;
68888;SDS011;55930;47.412;8.790;2022-12-31T22:37:55;10.40;;;6.95;;
68888;SDS011;55930;47.412;8.790;2022-12-31T22:41:17;7.33;;;4.70;;
68888;SDS011;55930;47.412;8.790;2022-12-31T22:44:38;6.53;;;3.60;;
68888;SDS011;55930;47.412;8.790;2022-12-31T22:47:59;4.40;;;2.90;;
68888;SDS011;55930;47.412;8.790;2022-12-31T22:51:19;3.30;;;2.27;;
68888;SDS011;55930;47.412;8.790;2022-12-31T22:54:39;5.20;;;3.10;;
68888;SDS011;55930;47.412;8.790;2022-12-31T22:58:00;8.87;;;4.03;;
68888;SDS011;55930;47.412;8.790;2022-12-31T23:01:21;6.17;;;3.30;;
68888;SDS011;55930;47.412;8.790;2022-12-31T23:04:43;7.18;;;4.07;;
68888;SDS011;55930;47.412;8.790;2022-12-31T23:08:06;6.10;;;5.15;;
68888;SDS011;55930;47.412;8.790;2022-12-31T23:11:27;12.45;;;8.73;;
68888;SDS011;55930;47.412;8.790;2022-12-31T23:14:52;17.45;;;12.55;;
68888;SDS011;55930;47.412;8.790;2022-12-31T23:18:31;28.38;;;19.08;;
68888;SDS011;55930;47.412;8.790;2022-12-31T23:22:10;53.97;;;34.50;;
68888;SDS011;55930;47.412;8.790;2022-12-31T23:25:49;48.53;;;34.83;;
68888;SDS011;55930;47.412;8.790;2022-12-31T23:29:13;33.28;;;24.20;;
68888;SDS011;55930;47.412;8.790;2022-12-31T23:32:33;100.95;;;68.70;;
68888;SDS011;55930;47.412;8.790;2022-12-31T23:36:00;23.53;;;16.97;;
68888;SDS011;55930;47.412;8.790;2022-12-31T23:39:27;14.55;;;10.13;;
68888;SDS011;55930;47.412;8.790;2022-12-31T23:42:50;11.52;;;7.28;;
68888;SDS011;55930;47.412;8.790;2022-12-31T23:46:11;9.75;;;6.30;;
68888;SDS011;55930;47.412;8.790;2022-12-31T23:49:32;11.23;;;7.10;;
68888;SDS011;55930;47.412;8.790;2022-12-31T23:52:53;7.40;;;5.47;;
68888;SDS011;55930;47.412;8.790;2022-12-31T23:56:15;9.88;;;7.82;;
68888;SDS011;55930;47.412;8.790;2022-12-31T23:59:37;29.75;;;22.25;;
